Time;durP1;ratioP1;P1;durP2;ratioP2;P2;SDS_P1;SDS_P2;PMS_P1;PMS_P2;Temp;Humidity;BMP_temperature;BMP_pressure;BME280_temperature;BME280_humidity;BME280_pressure;Samples;Min_cycle;Max_cycle;Signal;HPM_P1;HPM_P2
2023/01/27 00:00:52;;;;;;;2.65;1.50;;;;;;;17.65;41.89;102477.09;5028111;28;20080;-60
2023/01/27 00:03:18;;;;;;;4.60;1.80;;;;;;;17.65;42.18;102479.81;5027382;28;20033;-60
2023/01/27 00:05:44;;;;;;;3.25;1.58;;;;;;;17.58;41.91;102469.66;5027774;28;20026;-59
2023/01/27 00:08:09;;;;;;;3.58;1.67;;;;;;;17.64;42.06;102479.94;5027795;28;20037;-59
2023/01/27 00:10:35;;;;;;;3.95;1.83;;;;;;;17.63;41.95;102472.84;5027828;28;20022;-59
2023/01/27 00:15:44;;;;;;;5.35;2.53;;;;;;;17.62;41.93;102476.50;5027893;28;20057;-60
2023/01/27 00:18:09;;;;;;;5.40;2.25;;;;;;;17.60;41.95;102476.63;5027603;28;20017;-59
2023/01/27 00:26:09;;;;;;;;;;;;;;;17.59;42.02;102483.00;5028099;28;20470;-59
2023/01/27 00:28:35;;;;;;;3.80;1.75;;;;;;;17.58;41.95;102473.19;5027722;28;19940;-59
2023/01/27 00:31:00;;;;;;;2.63;1.45;;;;;;;17.56;41.91;102477.84;5027298;28;20033;-59
2023/01/27 00:33:26;;;;;;;3.45;2.30;;;;;;;17.55;42.04;102478.81;5027275;28;20406;-59
2023/01/27 00:36:04;;;;;;;3.42;1.50;;;;;;;17.55;41.87;102476.13;5027231;28;20746;-59
2023/01/27 00:38:30;;;;;;;4.03;1.70;;;;;;;17.55;41.68;102486.03;5027111;28;20080;-59
2023/01/27 00:41:18;;;;;;;3.45;1.60;;;;;;;17.55;42.01;102480.66;5026953;28;20133;-60
2023/01/27 00:43:46;;;;;;;5.05;2.00;;;;;;;17.55;41.72;102483.34;5027355;28;20026;-60
2023/01/27 00:46:12;;;;;;;3.05;1.50;;;;;;;17.55;41.59;102496.81;5027234;28;20025;-59
2023/01/27 00:48:38;;;;;;;3.30;1.70;;;;;;;17.48;41.98;102483.81;5026287;28;20545;-59
2023/01/27 00:51:04;;;;;;;6.25;1.55;;;;;;;17.53;41.93;102496.91;5027030;28;20026;-59
2023/01/27 00:53:29;;;;;;;3.28;1.60;;;;;;;17.53;42.00;102496.06;5027060;28;20026;-58
2023/01/27 00:55:57;;;;;;;3.42;1.67;;;;;;;17.51;41.81;102496.19;5026876;28;20029;-59
2023/01/27 00:58:22;;;;;;;3.85;1.92;;;;;;;17.52;41.61;102497.88;5026898;28;20026;-59
2023/01/27 01:00:47;;;;;;;3.90;1.88;;;;;;;17.51;41.94;102498.88;5026285;28;20022;-58
2023/01/27 01:03:13;;;;;;;3.17;1.80;;;;;;;17.45;41.71;102488.59;5026872;28;20037;-58
2023/01/27 01:05:38;;;;;;;4.80;2.22;;;;;;;17.49;41.78;102496.28;5026752;28;20165;-59
2023/01/27 01:08:03;;;;;;;3.50;1.77;;;;;;;17.49;41.57;102504.34;5026700;28;20037;-59
2023/01/27 01:10:29;;;;;;;4.10;2.10;;;;;;;17.49;41.85;102493.59;5008915;28;20090;-59
2023/01/27 01:12:54;;;;;;;2.88;1.75;;;;;;;17.48;41.61;102496.41;5026703;28;20029;-59
2023/01/27 01:15:19;;;;;;;3.28;1.75;;;;;;;17.48;41.96;102493.72;5026750;28;20033;-59
2023/01/27 01:17:44;;;;;;;3.42;1.60;;;;;;;17.48;41.69;102502.66;5026599;28;20033;-59
2023/01/27 01:20:10;;;;;;;3.38;1.65;;;;;;;17.47;41.64;102500.94;5026590;28;20475;-59
2023/01/27 01:22:35;;;;;;;2.63;1.50;;;;;;;17.47;41.77;102498.25;5008185;28;20037;-59
2023/01/27 01:25:01;;;;;;;1.88;1.45;;;;;;;17.46;41.71;102506.44;5007132;28;20117;-59
2023/01/27 01:27:26;;;;;;;4.28;1.50;;;;;;;17.45;41.91;102516.31;5006967;28;20073;-59
2023/01/27 01:29:51;;;;;;;5.55;1.92;;;;;;;17.27;41.73;102487.34;5006809;28;20449;-59
2023/01/27 01:32:17;;;;;;;2.83;1.80;;;;;;;17.44;41.87;102517.31;5021038;28;20072;-59
2023/01/27 01:34:42;;;;;;;2.47;1.80;;;;;;;17.44;41.68;102511.94;5026106;28;20041;-56
2023/01/27 01:37:07;;;;;;;3.25;1.50;;;;;;;17.44;41.60;102521.84;5026205;28;20026;-59
2023/01/27 01:39:33;;;;;;;2.70;1.80;;;;;;;17.43;41.54;102520.13;5026291;28;20072;-59
2023/01/27 01:41:58;;;;;;;3.53;1.63;;;;;;;17.43;41.66;102525.50;5026063;28;20140;-58
2023/01/27 01:44:31;;;;;;;4.10;1.80;;;;;;;17.42;41.58;102529.19;5026070;28;20038;-58
2023/01/27 01:46:56;;;;;;;2.78;1.77;;;;;;;17.41;41.48;102525.59;5011777;28;20430;-59
2023/01/27 01:49:48;;;;;;;3.03;1.60;;;;;;;17.41;41.75;102528.28;5026007;28;20483;-59
2023/01/27 01:52:16;;;;;;;3.25;1.60;;;;;;;17.39;41.54;102524.03;5022628;28;20034;-59
2023/01/27 01:54:49;;;;;;;2.40;1.40;;;;;;;17.39;41.68;102534.78;5008382;28;20038;-59
2023/01/27 01:57:19;;;;;;;2.40;1.65;;;;;;;17.33;41.72;102528.06;5025978;28;20029;-59
2023/01/27 01:59:49;;;;;;;1.83;1.40;;;;;;;17.38;41.63;102533.06;5024829;28;20393;-59
2023/01/27 02:02:16;;;;;;;4.10;1.75;;;;;;;17.38;41.58;102527.69;5007859;28;20045;-60
2023/01/27 02:04:46;;;;;;;2.97;1.70;;;;;;;17.37;41.54;102536.72;5007725;28;20085;-60
2023/01/27 02:07:31;;;;;;;3.88;1.90;;;;;;;17.36;41.52;102535.88;5008052;28;20018;-59
2023/01/27 02:09:57;;;;;;;3.67;2.10;;;;;;;17.36;41.52;102530.50;5025781;28;20498;-60
2023/01/27 02:12:22;;;;;;;2.53;1.80;;;;;;;17.36;41.63;102537.69;5007992;28;20049;-59
2023/01/27 02:14:48;;;;;;;3.10;1.70;;;;;;;17.35;41.78;102533.31;5007911;28;20109;-60
2023/01/27 02:17:14;;;;;;;2.90;2.13;;;;;;;17.34;41.81;102540.53;5024341;28;20044;-60
2023/01/27 02:20:04;;;;;;;2.58;1.80;;;;;;;17.33;41.77;102538.81;5025445;28;20026;-60
2023/01/27 02:22:39;;;;;;;2.25;1.80;;;;;;;17.33;41.59;102535.25;5007778;28;20048;-59
2023/01/27 02:25:34;;;;;;;3.25;1.70;;;;;;;17.32;41.47;102534.38;5025592;28;20030;-60
2023/01/27 02:28:03;;;;;;;3.03;1.90;;;;;;;17.32;41.59;102536.22;4925986;29;20036;-59
2023/01/27 02:30:29;;;;;;;3.08;1.70;;;;;;;17.30;41.57;102539.03;4926384;29;20024;-59
2023/01/27 02:32:54;;;;;;;4.35;1.92;;;;;;;17.29;41.69;102542.72;4926322;29;20068;-59
2023/01/27 02:35:29;;;;;;;2.35;1.90;;;;;;;17.26;41.68;102531.34;4926320;29;20071;-59
2023/01/27 02:37:55;;;;;;;2.47;1.83;;;;;;;17.30;41.73;102539.03;4926098;29;20560;-59
2023/01/27 02:40:20;;;;;;;1.90;1.70;;;;;;;17.28;41.49;102537.44;4926252;29;20035;-59
2023/01/27 02:42:46;;;;;;;4.00;2.10;;;;;;;17.29;41.53;102539.13;4926197;29;20032;-59
2023/01/27 02:45:11;;;;;;;3.28;2.00;;;;;;;17.29;41.79;102539.13;4931053;29;20046;-59
2023/01/27 02:47:36;;;;;;;3.47;2.00;;;;;;;17.29;41.55;102548.09;4945149;29;20046;-59
2023/01/27 02:50:01;;;;;;;2.45;1.75;;;;;;;17.23;41.55;102537.78;4945062;29;20039;-59
2023/01/27 02:52:27;;;;;;;4.75;2.35;;;;;;;17.28;41.62;102550.88;4944920;29;20130;-60
2023/01/27 02:54:52;;;;;;;2.67;1.80;;;;;;;17.28;41.45;102551.72;4944933;29;20040;-59
2023/01/27 02:57:17;;;;;;;2.55;1.70;;;;;;;17.28;41.40;102545.50;4940789;29;20040;-58
2023/01/27 02:59:42;;;;;;;3.47;2.30;;;;;;;17.27;41.60;102541.97;4926115;29;20062;-59
2023/01/27 03:02:11;;;;;;;2.97;1.88;;;;;;;17.24;41.74;102540.34;4925816;29;20036;-59
2023/01/27 03:04:37;;;;;;;3.13;2.03;;;;;;;17.27;41.64;102544.66;4984334;28;20041;-59
2023/01/27 03:07:03;;;;;;;2.75;1.85;;;;;;;17.26;41.69;102544.78;5024994;28;20072;-60
2023/01/27 03:09:28;;;;;;;3.20;1.90;;;;;;;17.24;41.57;102545.72;5024626;28;20022;-60
2023/01/27 03:20:05;;;;;;;4.03;1.95;;;;;;;17.24;41.44;102547.56;5028924;28;20041;-60
2023/01/27 03:22:31;;;;;;;2.95;1.90;;;;;;;17.23;41.77;102552.09;5028669;28;20081;-56
2023/01/27 03:24:56;;;;;;;3.42;2.03;;;;;;;17.24;41.63;102550.25;5028983;28;20038;-59
2023/01/27 03:27:21;;;;;;;3.63;2.28;;;;;;;17.21;41.71;102543.28;5028359;28;20069;-60
2023/01/27 03:29:56;;;;;;;2.72;1.70;;;;;;;17.23;41.42;102552.09;5028445;28;20080;-59
2023/01/27 03:32:29;;;;;;;2.50;1.90;;;;;;;17.22;41.49;102549.53;5028394;28;20030;-59
2023/01/27 03:34:56;;;;;;;2.13;1.92;;;;;;;17.20;41.46;102560.41;5028259;28;20085;-59
2023/01/27 03:48:28;;;;;;;3.60;1.88;;;;;;;17.20;41.63;102555.03;5013341;28;20028;-59
2023/01/27 03:50:56;;;;;;;2.58;1.98;;;;;;;17.20;41.65;102564.91;5028205;28;20121;-59
2023/01/27 03:53:22;;;;;;;2.20;1.77;;;;;;;17.19;41.37;102557.81;5028370;28;20068;-59
2023/01/27 03:55:47;;;;;;;2.67;2.03;;;;;;;17.20;41.70;102570.28;5028263;28;20080;-59
2023/01/27 03:58:23;;;;;;;2.83;1.88;;;;;;;17.20;41.56;102564.91;5028020;28;20033;-59
2023/01/27 04:00:50;;;;;;;2.03;1.67;;;;;;;17.19;41.70;102566.72;5028074;28;20057;-59
2023/01/27 04:08:51;;;;;;;2.38;1.92;;;;;;;17.20;41.50;102570.28;5027857;28;20033;-59
2023/01/27 04:14:02;;;;;;;2.17;1.70;;;;;;;17.16;41.53;102566.09;5027768;28;20038;-59
2023/01/27 04:16:29;;;;;;;2.47;1.60;;;;;;;17.17;41.58;102563.31;5027894;28;20026;-58
2023/01/27 04:18:57;;;;;;;1.88;1.55;;;;;;;17.18;41.61;102574.91;5027751;28;20025;-59
2023/01/27 04:21:24;;;;;;;2.72;1.60;;;;;;;17.16;41.53;102572.38;5019458;28;20045;-59
2023/01/27 04:23:50;;;;;;;3.53;1.83;;;;;;;17.18;41.55;102574.91;5006927;28;20513;-59
2023/01/27 04:26:15;;;;;;;2.20;1.60;;;;;;;17.16;41.45;102569.69;5008158;28;20050;-59
2023/01/27 04:28:40;;;;;;;2.40;1.60;;;;;;;17.18;41.45;102572.22;5027415;28;20033;-59
2023/01/27 04:31:06;;;;;;;1.63;1.38;;;;;;;17.18;41.59;102570.41;5027448;28;20085;-59
2023/01/27 04:33:31;;;;;;;2.00;1.40;;;;;;;17.17;41.60;102574.06;5027320;28;20438;-59
2023/01/27 04:35:56;;;;;;;2.63;1.70;;;;;;;17.10;41.52;102563.91;5027160;28;20120;-59
2023/01/27 04:38:21;;;;;;;2.35;1.67;;;;;;;17.17;41.66;102575.91;5023882;28;20029;-59
2023/01/27 04:40:47;;;;;;;2.92;1.70;;;;;;;17.15;41.54;102581.38;5018976;28;20050;-59
2023/01/27 04:43:12;;;;;;;2.47;1.60;;;;;;;17.16;41.41;102577.75;5014666;28;20026;-59
2023/01/27 04:45:37;;;;;;;1.65;1.50;;;;;;;17.16;41.55;102575.06;5021562;28;20036;-59
2023/01/27 04:48:03;;;;;;;1.90;1.30;;;;;;;17.17;41.42;102584.81;5026741;28;20025;-59
2023/01/27 04:50:29;;;;;;;1.50;1.25;;;;;;;17.17;41.69;102578.59;5026726;28;20022;-59
2023/01/27 04:52:54;;;;;;;1.52;1.30;;;;;;;17.16;41.65;102585.81;5026661;28;20061;-60
2023/01/27 04:55:19;;;;;;;1.58;1.20;;;;;;;17.16;41.58;102582.22;5026574;28;20021;-59
2023/01/27 04:57:44;;;;;;;2.67;1.75;;;;;;;17.14;41.68;102574.28;5026327;28;20052;-58
2023/01/27 05:00:11;;;;;;;1.77;1.42;;;;;;;17.18;41.59;102578.47;5026484;28;20022;-58
2023/01/27 05:02:37;;;;;;;1.50;1.27;;;;;;;17.18;41.52;102578.47;5026610;28;20022;-59
2023/01/27 05:05:03;;;;;;;2.45;1.60;;;;;;;17.18;41.55;102585.69;5026648;28;20043;-58
2023/01/27 05:07:31;;;;;;;1.95;1.50;;;;;;;17.19;41.59;102596.28;5019171;28;20026;-58
2023/01/27 05:09:57;;;;;;;1.70;1.30;;;;;;;17.18;41.77;102586.53;5012054;28;20076;-58
2023/01/27 05:12:22;;;;;;;1.90;1.20;;;;;;;17.17;42.25;102578.59;5024411;28;20030;-58
2023/01/27 05:14:48;;;;;;;1.58;1.48;;;;;;;17.19;42.32;102595.44;5026360;28;20121;-58
2023/01/27 05:17:13;;;;;;;3.15;1.40;;;;;;;17.23;42.49;102587.03;5014616;28;20057;-60
2023/01/27 05:19:38;;;;;;;1.40;1.15;;;;;;;17.23;42.77;102586.19;5000744;28;20026;-60
2023/01/27 05:22:03;;;;;;;1.60;1.50;;;;;;;17.24;42.82;102590.56;5020907;28;20021;-59
2023/01/27 05:24:29;;;;;;;1.13;1.02;;;;;;;17.24;43.02;102596.81;5019955;28;20049;-58
2023/01/27 05:26:54;;;;;;;1.45;1.20;;;;;;;17.25;43.13;102584.25;5021734;28;20030;-59
2023/01/27 05:29:19;;;;;;;1.73;1.20;;;;;;;17.27;43.19;102586.81;5022549;28;20034;-59
2023/01/27 05:31:44;;;;;;;2.63;1.20;;;;;;;17.27;43.01;102584.13;5024582;28;20014;-58
2023/01/27 05:34:10;;;;;;;2.00;1.23;;;;;;;17.22;43.15;102579.09;5019240;28;20022;-59
2023/01/27 05:36:35;;;;;;;1.83;1.40;;;;;;;17.27;43.08;102584.97;5015810;28;20030;-59
2023/01/27 05:39:00;;;;;;;2.30;1.20;;;;;;;17.28;43.17;102589.38;5018664;28;20097;-59
2023/01/27 05:41:29;;;;;;;1.30;1.20;;;;;;;17.28;43.11;102584.00;5012872;28;20042;-59
2023/01/27 05:43:55;;;;;;;2.17;1.40;;;;;;;17.29;43.23;102604.53;5013965;28;20034;-58
2023/01/27 05:46:22;;;;;;;1.92;1.30;;;;;;;17.30;43.07;102606.25;5016578;28;20057;-59
2023/01/27 05:48:53;;;;;;;1.60;1.23;;;;;;;17.19;43.02;102588.22;5020375;28;20028;-58
2023/01/27 05:51:20;;;;;;;1.50;1.20;;;;;;;17.31;43.20;102607.09;5020619;28;20033;-59
2023/01/27 05:53:46;;;;;;;2.45;1.20;;;;;;;17.31;43.07;102596.34;4989659;28;20022;-58
2023/01/27 05:56:14;;;;;;;1.83;1.40;;;;;;;17.32;43.22;102611.50;5015475;28;20058;-59
2023/01/27 05:58:40;;;;;;;1.40;1.30;;;;;;;17.32;43.04;102611.50;5024707;28;20025;-59
2023/01/27 06:01:17;;;;;;;2.30;1.20;;;;;;;17.33;43.30;102622.16;4999312;28;20364;-58
2023/01/27 06:03:43;;;;;;;2.00;1.05;;;;;;;17.33;43.17;102615.91;5020161;28;20037;-57
2023/01/27 06:06:09;;;;;;;2.60;1.15;;;;;;;17.32;43.08;102615.03;5020367;28;20082;-58
2023/01/27 06:08:35;;;;;;;1.45;1.23;;;;;;;17.34;43.23;102612.25;5001141;28;20064;-59
2023/01/27 06:11:01;;;;;;;2.17;0.95;;;;;;;17.34;43.07;102623.88;5016247;28;20085;-58
2023/01/27 06:13:27;;;;;;;1.88;1.30;;;;;;;17.34;43.43;102626.56;5016625;28;20030;-59
2023/01/27 06:15:53;;;;;;;1.83;1.35;;;;;;;17.34;43.07;102628.38;5022193;28;20019;-59
2023/01/27 06:18:19;;;;;;;1.40;1.10;;;;;;;17.34;43.26;102637.31;5010965;28;20030;-59
2023/01/27 06:20:44;;;;;;;1.30;1.20;;;;;;;17.33;43.41;102637.41;5003816;28;20116;-59
2023/01/27 06:23:12;;;;;;;1.02;1.00;;;;;;;17.33;43.13;102637.41;5023050;28;20044;-60
2023/01/27 06:25:47;;;;;;;3.30;1.20;;;;;;;17.34;43.28;102644.50;5017412;28;20112;-58
2023/01/27 06:28:13;;;;;;;1.30;1.20;;;;;;;17.34;43.20;102642.69;5012624;28;20105;-59
2023/01/27 06:30:39;;;;;;;1.67;1.20;;;;;;;17.34;43.04;102639.16;5024280;28;20022;-59
2023/01/27 06:33:05;;;;;;;1.20;1.10;;;;;;;17.32;43.36;102644.63;5021393;28;20037;-59
2023/01/27 06:35:31;;;;;;;2.35;1.40;;;;;;;17.34;43.35;102647.22;5013035;28;20094;-59
2023/01/27 06:37:57;;;;;;;1.38;1.13;;;;;;;17.30;43.14;102643.03;5020863;28;20034;-60
2023/01/27 06:40:23;;;;;;;1.10;1.00;;;;;;;17.31;43.16;102650.13;5016959;28;20053;-53
2023/01/27 06:42:49;;;;;;;2.42;1.10;;;;;;;17.30;43.07;102654.63;4999599;28;20029;-56
2023/01/27 06:45:14;;;;;;;1.75;1.00;;;;;;;17.32;42.96;102650.00;5018827;28;20037;-59
2023/01/27 06:47:40;;;;;;;1.92;1.20;;;;;;;17.32;42.86;102646.44;5016829;28;20045;-58
2023/01/27 06:50:07;;;;;;;1.20;1.10;;;;;;;17.32;42.98;102646.44;5013299;28;20030;-59
2023/01/27 06:52:32;;;;;;;1.55;1.05;;;;;;;17.31;43.09;102650.13;5017414;28;20040;-59
2023/01/27 06:54:58;;;;;;;1.10;1.00;;;;;;;17.31;42.85;102648.28;5021737;28;20061;-59
2023/01/27 06:57:23;;;;;;;1.23;1.10;;;;;;;17.31;42.95;102648.28;5013678;28;20030;-59
2023/01/27 06:59:48;;;;;;;2.70;1.00;;;;;;;17.31;42.78;102664.41;5010599;28;20033;-58
2023/01/27 07:02:13;;;;;;;1.08;1.08;;;;;;;17.31;42.90;102664.41;5022672;28;20403;-61
2023/01/27 07:04:39;;;;;;;1.67;1.30;;;;;;;17.30;42.94;102665.41;5017938;28;20021;-61
2023/01/27 07:07:04;;;;;;;1.15;1.08;;;;;;;17.30;42.94;102670.78;5019891;28;20049;-61
2023/01/27 07:09:29;;;;;;;1.20;1.10;;;;;;;17.29;42.85;102665.50;5023632;28;20021;-59
2023/01/27 07:11:55;;;;;;;1.20;1.10;;;;;;;17.28;42.55;102667.31;5023885;28;20033;-61
2023/01/27 07:14:20;;;;;;;1.83;1.17;;;;;;;17.29;42.96;102666.38;5023880;28;20091;-60
2023/01/27 07:16:47;;;;;;;1.38;1.02;;;;;;;17.29;42.74;102669.06;5020349;28;20034;-59
2023/01/27 07:19:13;;;;;;;1.27;0.90;;;;;;;17.23;42.57;102664.97;5004574;28;20022;-60
2023/01/27 07:21:38;;;;;;;1.35;1.08;;;;;;;17.31;42.70;102677.84;5014983;28;20060;-59
2023/01/27 07:24:04;;;;;;;1.63;1.13;;;;;;;17.35;42.57;102678.50;5024572;28;20037;-59
2023/01/27 07:26:29;;;;;;;2.08;1.20;;;;;;;17.37;42.17;102681.91;5024307;28;20053;-59
2023/01/27 07:28:55;;;;;;;1.23;1.02;;;;;;;17.34;42.30;102674.09;5024267;28;20049;-59
2023/01/27 07:31:20;;;;;;;1.58;1.10;;;;;;;17.38;42.36;102671.06;5024767;28;20053;-60
2023/01/27 07:33:46;;;;;;;1.63;1.02;;;;;;;17.39;42.03;102663.84;5023907;28;20030;-59
2023/01/27 07:36:11;;;;;;;1.75;0.90;;;;;;;17.39;42.10;102669.22;5024443;28;20065;-59
2023/01/27 07:38:37;;;;;;;1.30;0.90;;;;;;;17.40;41.98;102674.47;5024386;28;20041;-59
2023/01/27 07:41:04;;;;;;;1.20;0.90;;;;;;;17.38;42.04;102673.75;5019472;28;20594;-60
2023/01/27 07:43:30;;;;;;;2.67;1.52;;;;;;;17.36;42.03;102678.38;5005710;28;20026;-59
2023/01/27 07:45:56;;;;;;;0.90;0.90;;;;;;;17.38;42.40;102695.25;5015783;28;20026;-58
2023/01/27 07:48:21;;;;;;;1.63;1.00;;;;;;;17.36;42.36;102697.19;5024041;28;20046;-59
2023/01/27 07:50:47;;;;;;;1.27;0.95;;;;;;;17.34;42.11;102699.16;5023912;28;20045;-59
2023/01/27 07:53:12;;;;;;;1.10;1.00;;;;;;;17.35;42.08;102692.78;5023959;28;20032;-59
2023/01/27 07:55:37;;;;;;;1.52;1.40;;;;;;;17.11;41.89;102659.66;5024237;28;20041;-59
2023/01/27 07:58:03;;;;;;;1.63;1.20;;;;;;;17.30;42.08;102689.59;5027132;28;20065;-60
2023/01/27 08:00:29;;;;;;;2.50;1.15;;;;;;;17.31;41.98;102690.44;5028070;28;20081;-60
2023/01/27 08:02:55;;;;;;;1.05;0.98;;;;;;;17.33;41.76;102693.84;5027623;28;20022;-59
2023/01/27 08:05:21;;;;;;;1.00;0.80;;;;;;;17.38;41.74;102700.63;5027907;28;20037;-59
2023/01/27 08:07:47;;;;;;;0.80;0.80;;;;;;;17.39;41.70;102698.78;5026478;28;20028;-59
2023/01/27 08:10:13;;;;;;;1.23;0.85;;;;;;;17.38;41.57;102700.63;5027615;28;20057;-59
2023/01/27 08:12:38;;;;;;;1.33;0.90;;;;;;;17.38;41.73;102707.84;5027583;28;20037;-59
2023/01/27 08:15:04;;;;;;;1.58;1.00;;;;;;;17.35;41.40;102710.75;5027537;28;20032;-59
2023/01/27 08:17:29;;;;;;;2.25;1.17;;;;;;;17.35;41.59;102700.84;5027586;28;20088;-60
2023/01/27 08:19:55;;;;;;;0.90;0.90;;;;;;;17.38;41.56;102716.75;5027862;28;20026;-59
2023/01/27 08:22:20;;;;;;;1.63;1.52;;;;;;;17.33;41.34;102702.81;5027367;28;20049;-59
2023/01/27 08:24:46;;;;;;;2.13;1.00;;;;;;;17.39;41.54;102721.16;5027674;28;20038;-59
2023/01/27 08:27:11;;;;;;;1.33;1.00;;;;;;;17.39;41.55;102726.53;5027523;28;20029;-60
2023/01/27 08:29:36;;;;;;;1.02;0.93;;;;;;;17.38;41.28;102730.22;5027069;28;20033;-59
2023/01/27 08:32:02;;;;;;;0.90;0.90;;;;;;;17.37;41.51;102727.63;5027625;28;20041;-59
2023/01/27 08:34:27;;;;;;;1.10;0.90;;;;;;;17.34;41.49;102728.72;5026761;28;20386;-60
2023/01/27 08:36:52;;;;;;;1.08;0.93;;;;;;;17.34;41.36;102722.47;5027387;28;20558;-60
2023/01/27 08:39:18;;;;;;;0.90;0.90;;;;;;;17.37;41.30;102733.00;5025508;28;20065;-60
2023/01/27 08:41:43;;;;;;;0.88;0.82;;;;;;;17.36;41.29;102723.22;5007175;28;20047;-60
2023/01/27 08:44:08;;;;;;;1.10;1.00;;;;;;;17.34;41.37;102736.78;5007608;28;20030;-59
2023/01/27 08:46:34;;;;;;;1.33;1.00;;;;;;;17.34;41.33;102731.41;5005880;28;20037;-59
2023/01/27 08:48:59;;;;;;;1.10;1.00;;;;;;;17.32;41.51;102729.78;5027049;28;20099;-59
2023/01/27 08:51:24;;;;;;;1.20;1.10;;;;;;;17.34;41.42;102736.78;5026529;28;20041;-59
2023/01/27 08:53:49;;;;;;;0.80;0.80;;;;;;;17.32;41.35;102733.34;5027129;28;20037;-60
2023/01/27 08:56:15;;;;;;;1.08;0.98;;;;;;;17.34;41.19;102741.31;5026676;28;20050;-59
2023/01/27 08:58:41;;;;;;;1.55;1.25;;;;;;;17.27;41.21;102730.13;5009435;28;20025;-60
2023/01/27 09:01:07;;;;;;;1.70;0.90;;;;;;;17.32;41.24;102729.78;5026890;28;20028;-59
2023/01/27 09:03:32;;;;;;;0.98;0.90;;;;;;;17.34;41.17;102736.78;5026632;28;20117;-51
2023/01/27 09:05:58;;;;;;;0.93;0.80;;;;;;;17.30;41.22;102737.97;5009267;28;20037;-60
2023/01/27 09:08:24;;;;;;;1.00;0.90;;;;;;;17.36;41.24;102747.41;5025979;28;20116;-60
2023/01/27 09:10:49;;;;;;;0.80;0.80;;;;;;;17.35;40.79;102757.31;5026878;28;20089;-60
2023/01/27 09:13:15;;;;;;;1.33;1.00;;;;;;;17.33;41.02;102761.06;5026557;28;20617;-58
2023/01/27 09:15:42;;;;;;;1.20;0.95;;;;;;;17.33;40.97;102761.97;5026605;28;20087;-60
2023/01/27 09:18:08;;;;;;;3.17;1.52;;;;;;;17.34;41.35;102769.06;5026311;28;20083;-60
2023/01/27 09:20:35;;;;;;;1.45;1.10;;;;;;;17.34;41.52;102766.34;5026386;28;20120;-60
2023/01/27 09:23:01;;;;;;;1.00;0.90;;;;;;;17.34;41.12;102776.25;5008776;28;20030;-57
2023/01/27 09:25:26;;;;;;;1.52;1.05;;;;;;;17.33;41.11;102766.44;5025934;28;20032;-60
2023/01/27 09:27:56;;;;;;;2.65;1.00;;;;;;;17.34;40.96;102770.88;5026072;28;20022;-60
2023/01/27 09:30:22;;;;;;;0.70;0.70;;;;;;;17.34;41.14;102781.63;5025885;28;20041;-59
2023/01/27 09:32:48;;;;;;;1.00;0.80;;;;;;;17.30;41.17;102772.94;5025066;28;20465;-60
2023/01/27 09:35:14;;;;;;;1.00;0.93;;;;;;;17.29;41.17;102775.72;5024603;28;20026;-59
2023/01/27 09:37:49;;;;;;;0.75;0.75;;;;;;;17.34;41.10;102785.19;5025383;28;20040;-60
2023/01/27 09:40:28;;;;;;;1.33;0.90;;;;;;;17.32;41.35;102775.50;5024671;28;20114;-60
2023/01/27 09:43:22;;;;;;;1.30;1.00;;;;;;;17.34;41.33;102782.50;5025517;28;20026;-60
2023/01/27 09:46:22;;;;;;;1.17;0.88;;;;;;;17.35;41.43;102776.13;5017797;28;20038;-59
2023/01/27 09:48:59;;;;;;;1.10;1.00;;;;;;;17.36;41.49;102782.38;5005554;28;20013;-61
2023/01/27 09:51:47;;;;;;;1.20;1.10;;;;;;;17.37;41.48;102786.75;5022356;28;20103;-60
2023/01/27 09:54:42;;;;;;;1.15;1.00;;;;;;;17.37;41.44;102781.38;5002347;28;20045;-60
2023/01/27 09:57:20;;;;;;;3.17;1.48;;;;;;;17.37;41.50;102797.53;5018468;28;20450;-59
2023/01/27 10:00:37;;;;;;;1.27;1.00;;;;;;;17.37;41.55;102784.06;5014244;28;20037;-57
2023/01/27 10:03:16;;;;;;;1.20;0.90;;;;;;;17.38;41.67;102794.75;4953274;29;20047;-53
2023/01/27 10:05:56;;;;;;;1.92;1.00;;;;;;;17.38;41.60;102792.06;4949435;29;20177;-59
2023/01/27 10:08:26;;;;;;;1.10;1.00;;;;;;;17.39;41.68;102799.13;4957693;29;20042;-57
2023/01/27 10:11:27;;;;;;;1.00;0.90;;;;;;;17.39;41.66;102780.31;4958746;29;20050;-57
2023/01/27 10:14:07;;;;;;;1.92;1.00;;;;;;;17.41;41.61;102788.25;4938543;29;20070;-59
2023/01/27 10:16:44;;;;;;;1.70;1.00;;;;;;;17.41;41.65;102785.56;4958165;29;20047;-57
2023/01/27 10:19:16;;;;;;;1.50;1.17;;;;;;;17.42;41.72;102787.31;4961362;29;20058;-59
2023/01/27 10:22:07;;;;;;;0.88;0.85;;;;;;;17.43;41.54;102786.34;4946691;29;20031;-59
2023/01/27 10:24:44;;;;;;;0.80;0.80;;;;;;;17.42;41.77;102788.16;4936454;29;20031;-59
2023/01/27 10:27:17;;;;;;;0.75;0.75;;;;;;;17.42;41.59;102784.63;4947601;29;20205;-59
2023/01/27 10:29:46;;;;;;;0.82;0.80;;;;;;;17.39;41.82;102788.38;4946930;29;20082;-58
2023/01/27 10:32:29;;;;;;;1.67;1.00;;;;;;;17.41;41.61;102788.25;4947171;29;20031;-57
2023/01/27 10:35:00;;;;;;;0.80;0.80;;;;;;;17.41;41.62;102789.13;4956163;29;20074;-59
2023/01/27 10:37:38;;;;;;;0.80;0.80;;;;;;;17.41;41.87;102785.56;4947219;29;20039;-59
2023/01/27 10:40:06;;;;;;;2.13;1.13;;;;;;;17.41;41.92;102797.19;4974482;28;20116;-59
2023/01/27 10:42:45;;;;;;;0.80;0.80;;;;;;;17.42;41.82;102795.38;5023790;28;20038;-54
2023/01/27 10:45:21;;;;;;;0.90;0.90;;;;;;;17.44;41.80;102796.09;5017467;28;20029;-59
2023/01/27 10:48:00;;;;;;;1.42;1.08;;;;;;;17.47;41.69;102794.06;5004586;28;20185;-56
2023/01/27 10:50:33;;;;;;;1.10;1.00;;;;;;;17.45;41.60;102790.59;4995643;28;20561;-57
2023/01/27 10:53:05;;;;;;;1.35;1.00;;;;;;;17.57;41.71;102796.06;5003986;28;20472;-58
2023/01/27 10:55:45;;;;;;;1.77;1.00;;;;;;;17.57;41.30;102783.47;5022004;28;20033;-59
2023/01/27 10:58:48;;;;;;;1.00;0.90;;;;;;;17.65;41.22;102786.44;5023877;28;20084;-51
2023/01/27 11:01:16;;;;;;;1.10;0.73;;;;;;;17.69;41.07;102792.47;5019252;28;20036;-57
2023/01/27 11:03:46;;;;;;;2.25;0.80;;;;;;;17.71;41.06;102777.94;5005280;28;20069;-56
2023/01/27 11:06:15;;;;;;;0.98;0.88;;;;;;;17.76;41.05;102787.53;5000646;28;20441;-58
2023/01/27 11:08:44;;;;;;;0.77;0.77;;;;;;;17.78;41.28;102774.78;5001953;28;20060;-53
2023/01/27 11:14:03;;;;;;;1.63;0.77;;;;;;;17.81;41.08;102772.75;5011035;28;20036;-57
2023/01/27 11:16:32;;;;;;;1.70;0.80;;;;;;;17.81;40.77;102761.13;5004499;28;20114;-56
2023/01/27 11:19:04;;;;;;;0.93;0.73;;;;;;;17.85;40.78;102768.84;5019591;28;20049;-58
2023/01/27 11:21:30;;;;;;;0.70;0.70;;;;;;;17.89;41.03;102766.78;4997849;28;20055;-57
2023/01/27 11:23:59;;;;;;;0.80;0.80;;;;;;;17.88;40.50;102765.03;5000101;28;20438;-61
2023/01/27 11:26:47;;;;;;;0.90;0.90;;;;;;;17.88;40.97;102757.84;5005732;28;20021;-59
2023/01/27 11:29:26;;;;;;;0.60;0.60;;;;;;;17.88;40.84;102762.34;4998628;28;20034;-59
2023/01/27 11:31:56;;;;;;;2.30;0.63;;;;;;;17.88;40.88;102762.34;5023151;28;20120;-59
2023/01/27 11:34:30;;;;;;;0.60;0.60;;;;;;;17.88;41.12;102762.34;5019980;28;20049;-59
2023/01/27 11:36:55;;;;;;;0.90;0.80;;;;;;;17.85;41.25;102751.84;5005232;28;20029;-59
2023/01/27 11:39:21;;;;;;;0.70;0.70;;;;;;;17.90;41.18;102750.50;5022068;28;20014;-59
2023/01/27 11:41:49;;;;;;;1.35;0.80;;;;;;;17.92;41.19;102751.22;5012850;28;20028;-58
2023/01/27 11:44:20;;;;;;;1.90;0.77;;;;;;;17.93;41.24;102749.44;5021166;28;20017;-59
2023/01/27 11:46:46;;;;;;;0.85;0.60;;;;;;;17.96;41.34;102751.88;5007172;28;20030;-59
2023/01/27 11:49:18;;;;;;;1.05;1.00;;;;;;;17.97;41.26;102749.06;5003786;28;20093;-59
2023/01/27 11:51:43;;;;;;;1.77;0.70;;;;;;;18.01;41.23;102751.50;5008398;28;20018;-57
2023/01/27 11:54:21;;;;;;;1.95;0.80;;;;;;;18.02;41.25;102743.34;5016439;28;20021;-54
2023/01/27 11:56:48;;;;;;;0.98;0.70;;;;;;;18.02;41.21;102735.25;5009590;28;20426;-55
2023/01/27 11:59:22;;;;;;;0.85;0.68;;;;;;;18.09;40.98;102738.31;5025242;28;20041;-52
2023/01/27 12:02:05;;;;;;;3.90;0.80;;;;;;;18.10;40.88;102742.75;5003812;28;20127;-53
2023/01/27 12:04:48;;;;;;;1.92;0.70;;;;;;;18.10;41.05;102732.84;5021753;28;20022;-53
2023/01/27 12:07:19;;;;;;;0.70;0.70;;;;;;;18.07;40.92;102727.69;5022190;28;20032;-54
2023/01/27 12:09:44;;;;;;;1.98;0.80;;;;;;;18.04;41.41;102730.59;4995047;28;20015;-53